Time;durP1;ratioP1;P1;durP2;ratioP2;P2;SDS_P1;SDS_P2;PMS_P1;PMS_P2;Temp;Humidity;BMP_temperature;BMP_pressure;BME280_temperature;BME280_humidity;BME280_pressure;Samples;Min_cycle;Max_cycle;Signal;HPM_P1;HPM_P2
2021/04/23 00:00:47;;;;;;;4.53;2.10;;;;;;;2.53;53.35;96303.16;4974377;28;20179;-75
2021/04/23 00:03:23;;;;;;;10.57;3.03;;;;;;;2.45;53.47;96300.16;4974313;28;20190;-75
2021/04/23 00:05:51;;;;;;;3.87;2.20;;;;;;;2.41;53.63;96293.56;4991413;28;20211;-75
2021/04/23 00:08:18;;;;;;;5.23;2.23;;;;;;;2.40;53.70;96302.16;4974334;28;20177;-76
2021/04/23 00:10:44;;;;;;;5.93;2.30;;;;;;;2.37;54.58;96297.16;4990418;28;20180;-75
2021/04/23 00:13:10;;;;;;;6.77;2.73;;;;;;;2.33;55.08;96300.81;4991629;28;20212;-75
2021/04/23 00:15:36;;;;;;;5.80;2.37;;;;;;;2.30;55.45;96297.56;4973811;28;20189;-76
2021/04/23 00:18:01;;;;;;;4.60;2.33;;;;;;;2.28;55.41;96301.03;4992528;28;20179;-75
2021/04/23 00:20:28;;;;;;;7.17;2.70;;;;;;;2.26;55.33;96299.47;4995308;28;20263;-75
2021/04/23 00:22:55;;;;;;;6.40;2.13;;;;;;;2.28;54.83;96302.75;4977857;28;20178;-75
2021/04/23 00:25:25;;;;;;;8.60;2.50;;;;;;;2.26;54.61;96297.72;4977266;28;20217;-75
2021/04/23 00:27:55;;;;;;;7.50;2.97;;;;;;;2.28;54.85;96303.59;4978131;28;20584;-75
2021/04/23 00:30:23;;;;;;;8.73;3.07;;;;;;;2.30;54.36;96295.00;4993702;28;20640;-76
2021/04/23 00:32:52;;;;;;;6.33;2.83;;;;;;;2.33;54.29;96297.41;4977657;28;20206;-75
2021/04/23 00:35:18;;;;;;;6.17;2.30;;;;;;;2.27;55.25;96295.97;4993428;28;20219;-75
2021/04/23 00:37:47;;;;;;;7.87;2.67;;;;;;;2.22;55.99;96303.94;4994758;28;20694;-75
2021/04/23 00:40:16;;;;;;;6.90;2.60;;;;;;;2.16;56.00;96304.22;4977731;28;20209;-73
2021/04/23 00:42:41;;;;;;;6.20;2.63;;;;;;;2.10;56.47;96301.97;4994330;28;20208;-74
2021/04/23 00:45:08;;;;;;;6.40;3.10;;;;;;;2.09;55.93;96302.03;4976907;28;20247;-75
2021/04/23 00:47:33;;;;;;;9.07;3.40;;;;;;;2.04;56.85;96302.28;4994723;28;20187;-75
2021/04/23 00:49:58;;;;;;;5.70;2.73;;;;;;;2.02;57.54;96298.13;4961107;28;20191;-74
2021/04/23 00:52:24;;;;;;;5.40;2.20;;;;;;;1.99;57.76;96294.00;4977203;28;20250;-75
2021/04/23 00:54:49;;;;;;;4.97;2.70;;;;;;;1.93;58.19;96300.25;5010512;28;20585;-75
2021/04/23 00:57:14;;;;;;;6.63;2.90;;;;;;;1.91;58.30;96302.06;4980063;28;20183;-75
2021/04/23 00:59:39;;;;;;;5.50;2.67;;;;;;;1.89;58.34;96293.63;5014114;28;20210;-75
2021/04/23 01:02:09;;;;;;;3.77;2.17;;;;;;;1.89;58.26;96301.31;4996370;28;20658;-75
2021/04/23 01:04:34;;;;;;;5.77;2.47;;;;;;;1.86;58.19;96306.59;5012436;28;20212;-75
2021/04/23 01:07:00;;;;;;;8.87;2.47;;;;;;;1.82;57.98;96299.13;5013666;28;20185;-75
2021/04/23 01:09:28;;;;;;;6.17;2.83;;;;;;;1.81;58.35;96298.31;5013777;28;20186;-74
2021/04/23 01:11:55;;;;;;;7.77;2.60;;;;;;;1.79;58.56;96304.41;4996053;28;20651;-75
2021/04/23 01:14:20;;;;;;;8.07;2.47;;;;;;;1.77;58.78;96288.28;5012118;28;20214;-75
2021/04/23 01:16:46;;;;;;;8.53;3.20;;;;;;;1.74;58.82;96296.13;4996269;28;20218;-75
2021/04/23 01:19:15;;;;;;;4.13;2.33;;;;;;;1.68;59.00;96292.16;4979859;28;20186;-75
2021/04/23 01:21:40;;;;;;;6.67;2.50;;;;;;;1.63;59.26;96288.97;4996122;28;20613;-75
2021/04/23 01:24:08;;;;;;;8.47;2.50;;;;;;;1.62;59.30;96293.28;4995951;28;20203;-74
2021/04/23 01:26:36;;;;;;;5.23;2.70;;;;;;;1.60;58.99;96294.25;5011825;28;20675;-75
2021/04/23 01:29:04;;;;;;;8.50;2.60;;;;;;;1.58;59.11;96288.34;5011549;28;20233;-75
2021/04/23 01:31:31;;;;;;;6.70;3.10;;;;;;;1.57;59.00;96286.72;5011737;28;20229;-75
2021/04/23 01:34:11;;;;;;;8.27;3.00;;;;;;;1.57;59.63;96284.97;5013396;28;20330;-75
2021/04/23 01:36:37;;;;;;;6.20;2.70;;;;;;;1.58;59.13;96286.63;4995641;28;20222;-75
2021/04/23 01:39:06;;;;;;;7.27;2.70;;;;;;;1.63;57.84;96291.53;5011857;28;20861;-74
2021/04/23 01:41:32;;;;;;;6.83;2.57;;;;;;;1.59;58.98;96283.19;5012065;28;20517;-75
2021/04/23 01:43:57;;;;;;;4.53;3.13;;;;;;;1.58;59.13;96289.19;5013049;28;20206;-74
2021/04/23 01:46:22;;;;;;;9.27;3.00;;;;;;;1.56;58.85;96301.25;5012865;28;20552;-74
2021/04/23 01:48:48;;;;;;;7.07;2.70;;;;;;;1.60;59.11;96300.22;4979255;28;20210;-75
2021/04/23 01:51:14;;;;;;;14.87;3.10;;;;;;;1.56;59.32;96302.97;4979239;28;20182;-75
2021/04/23 01:53:40;;;;;;;7.33;2.40;;;;;;;1.55;59.34;96304.72;4995483;28;20203;-74
2021/04/23 01:56:06;;;;;;;5.30;2.57;;;;;;;1.53;59.22;96305.69;5011567;28;20234;-74
2021/04/23 01:58:31;;;;;;;8.67;2.97;;;;;;;1.50;59.21;96310.94;4995406;28;20227;-74
2021/04/23 02:00:57;;;;;;;4.83;2.43;;;;;;;1.47;59.37;96309.38;5011800;28;20183;-73
2021/04/23 02:03:23;;;;;;;8.43;2.60;;;;;;;1.45;59.12;96318.84;4995274;28;20687;-73
2021/04/23 02:05:50;;;;;;;7.83;3.20;;;;;;;1.41;59.29;96309.66;5011200;28;20283;-74
2021/04/23 02:08:17;;;;;;;8.17;2.73;;;;;;;1.47;57.72;96313.66;5011284;28;20187;-74
2021/04/23 02:10:46;;;;;;;8.73;3.30;;;;;;;1.45;58.74;96310.34;4995200;28;20364;-74
2021/04/23 02:13:13;;;;;;;8.83;2.90;;;;;;;1.46;59.18;96317.13;5012616;28;20179;-73
2021/04/23 02:15:38;;;;;;;5.10;3.10;;;;;;;1.46;59.03;96319.69;4994715;28;20241;-74
2021/04/23 02:18:05;;;;;;;7.23;2.73;;;;;;;1.41;59.13;96315.63;4994949;28;20241;-74
2021/04/23 02:20:33;;;;;;;6.90;2.97;;;;;;;1.44;59.21;96319.75;4994871;28;20278;-74
2021/04/23 02:22:59;;;;;;;9.10;2.97;;;;;;;1.38;59.40;96322.59;5011372;28;20179;-76
2021/04/23 02:25:26;;;;;;;5.00;2.97;;;;;;;1.38;59.61;96325.16;4994376;28;20215;-77
2021/04/23 02:27:52;;;;;;;8.57;2.87;;;;;;;1.42;59.44;96331.81;4994674;28;20197;-76
2021/04/23 02:30:28;;;;;;;7.67;2.60;;;;;;;1.38;59.42;96323.44;5011295;28;20610;-74
2021/04/23 02:32:54;;;;;;;12.43;3.13;;;;;;;1.37;59.56;96326.91;5012208;28;20229;-75
2021/04/23 02:35:21;;;;;;;10.27;2.80;;;;;;;1.38;59.35;96325.16;5010891;28;20238;-76
2021/04/23 02:37:46;;;;;;;11.00;3.17;;;;;;;1.38;59.60;96331.09;5012344;28;20593;-76
2021/04/23 02:40:13;;;;;;;6.20;2.90;;;;;;;1.36;59.74;96322.69;4994561;28;20272;-76
2021/04/23 02:42:40;;;;;;;9.23;3.07;;;;;;;1.35;59.55;96331.25;4994428;28;20650;-75
2021/04/23 02:45:08;;;;;;;6.63;2.90;;;;;;;1.35;59.62;96330.44;5010523;28;20244;-73
2021/04/23 02:47:33;;;;;;;3.33;2.30;;;;;;;1.33;59.82;96327.97;5011982;28;20183;-76
2021/04/23 02:49:59;;;;;;;8.63;3.00;;;;;;;1.33;59.93;96327.97;4994804;28;20595;-76
2021/04/23 02:52:24;;;;;;;8.53;3.40;;;;;;;1.35;59.71;96330.44;5010867;28;20718;-75
2021/04/23 02:54:50;;;;;;;7.60;2.97;;;;;;;1.31;59.78;96327.16;4994218;28;20282;-76
2021/04/23 02:57:16;;;;;;;7.27;3.03;;;;;;;1.31;60.07;96329.72;4994441;28;20182;-74
2021/04/23 02:59:41;;;;;;;7.40;2.80;;;;;;;1.31;59.94;96329.72;4994252;28;20561;-75
2021/04/23 03:02:07;;;;;;;6.33;2.80;;;;;;;1.30;60.01;96333.19;4994315;28;20181;-74
2021/04/23 03:04:32;;;;;;;9.83;3.50;;;;;;;1.28;60.32;96332.44;5011625;28;20296;-75
2021/04/23 03:06:57;;;;;;;13.07;3.33;;;;;;;1.22;60.54;96332.72;4994292;28;20418;-76
2021/04/23 03:09:23;;;;;;;8.40;3.03;;;;;;;1.22;60.66;96334.44;5011812;28;20261;-75
2021/04/23 03:11:48;;;;;;;12.47;3.40;;;;;;;1.20;60.44;96334.53;4994588;28;20262;-76
2021/04/23 03:14:13;;;;;;;7.03;3.00;;;;;;;1.20;60.67;96328.59;5010369;28;20250;-75
2021/04/23 03:16:41;;;;;;;7.73;3.17;;;;;;;1.17;61.15;96339.81;4977771;28;20206;-76
2021/04/23 03:19:16;;;;;;;6.07;2.83;;;;;;;1.16;60.79;96339.88;4994355;28;20206;-76
2021/04/23 03:21:42;;;;;;;7.70;3.03;;;;;;;1.16;61.17;96334.75;4994082;28;20184;-76
2021/04/23 03:24:08;;;;;;;11.57;3.23;;;;;;;1.12;60.84;96340.00;4993951;28;20214;-76
2021/04/23 03:26:34;;;;;;;9.93;3.13;;;;;;;1.09;61.21;96342.72;5010057;28;20279;-75
2021/04/23 03:29:00;;;;;;;10.27;3.43;;;;;;;1.07;61.41;96334.28;4993936;28;20266;-76
2021/04/23 03:31:25;;;;;;;12.53;3.40;;;;;;;1.05;61.29;96335.22;5010456;28;20190;-74
2021/04/23 03:33:50;;;;;;;7.97;3.30;;;;;;;1.05;61.53;96337.78;4994124;28;20180;-75
2021/04/23 03:36:16;;;;;;;10.43;3.30;;;;;;;1.00;61.84;96335.47;4977491;28;20205;-75
2021/04/23 03:38:45;;;;;;;7.63;3.10;;;;;;;1.00;61.52;96335.47;5011600;28;20643;-74
2021/04/23 03:41:15;;;;;;;5.87;2.70;;;;;;;0.99;61.56;96338.09;4993860;28;20179;-75
2021/04/23 03:43:41;;;;;;;9.80;3.20;;;;;;;0.94;61.59;96335.72;5010204;28;20184;-75
2021/04/23 03:46:07;;;;;;;12.13;3.00;;;;;;;0.93;61.88;96338.38;5010057;28;20198;-75
2021/04/23 03:48:33;;;;;;;10.73;3.07;;;;;;;0.91;61.96;96341.00;5011553;28;20214;-75
2021/04/23 03:51:00;;;;;;;9.27;3.03;;;;;;;0.88;61.84;96346.22;4977868;28;20216;-75
2021/04/23 03:53:25;;;;;;;10.27;3.17;;;;;;;0.85;62.05;96343.81;4995484;28;20634;-75
2021/04/23 03:55:53;;;;;;;8.87;3.10;;;;;;;0.83;62.25;96346.44;4981011;28;20203;-75
2021/04/23 03:58:19;;;;;;;9.90;3.07;;;;;;;0.82;62.55;96342.25;5015191;28;20178;-74
2021/04/23 04:00:51;;;;;;;8.20;3.17;;;;;;;0.80;62.39;96341.50;5015208;28;20179;-74
2021/04/23 04:03:17;;;;;;;8.73;3.43;;;;;;;0.78;62.71;96339.88;5014015;28;20176;-75
2021/04/23 04:05:43;;;;;;;8.47;2.87;;;;;;;0.77;62.85;96349.28;4997168;28;20215;-75
2021/04/23 04:08:08;;;;;;;8.33;3.20;;;;;;;0.73;62.54;96342.66;5015081;28;20182;-74
2021/04/23 04:10:34;;;;;;;9.53;3.27;;;;;;;0.73;62.78;96344.38;5013590;28;20176;-76
2021/04/23 04:13:00;;;;;;;7.50;3.53;;;;;;;0.73;62.86;96347.75;4997527;28;20182;-75
2021/04/23 04:15:26;;;;;;;9.53;3.20;;;;;;;0.72;63.03;96346.13;5014543;28;20595;-75
2021/04/23 04:17:52;;;;;;;10.23;3.03;;;;;;;0.77;63.19;96351.84;4997471;28;20592;-75
2021/04/23 04:20:19;;;;;;;9.00;3.03;;;;;;;0.75;63.31;96355.38;5013658;28;20175;-75
2021/04/23 04:22:44;;;;;;;8.10;3.70;;;;;;;0.76;63.13;96362.97;5013432;28;20183;-75
2021/04/23 04:25:23;;;;;;;15.23;3.27;;;;;;;0.77;63.27;96356.94;4980522;28;20561;-75
2021/04/23 04:27:48;;;;;;;5.87;3.20;;;;;;;0.81;62.77;96361.03;4997137;28;20213;-75
2021/04/23 04:30:14;;;;;;;10.13;3.23;;;;;;;0.83;62.76;96361.78;5014658;28;20674;-75
2021/04/23 04:32:39;;;;;;;10.73;3.60;;;;;;;0.91;62.94;96360.63;4997095;28;20187;-75
2021/04/23 04:35:06;;;;;;;7.57;3.13;;;;;;;0.93;62.75;96363.94;5014306;28;20197;-75
2021/04/23 04:37:31;;;;;;;8.23;3.00;;;;;;;0.98;62.60;96369.69;4996748;28;20191;-75
2021/04/23 04:39:57;;;;;;;9.07;3.07;;;;;;;1.04;62.43;96362.53;4997029;28;20245;-75
2021/04/23 04:42:23;;;;;;;12.23;3.67;;;;;;;1.13;62.35;96368.97;5013214;28;20596;-75
2021/04/23 04:44:48;;;;;;;11.60;3.50;;;;;;;1.14;62.36;96368.91;5029218;28;20238;-74
2021/04/23 04:47:14;;;;;;;11.40;4.23;;;;;;;1.21;62.37;96369.44;5014337;28;20254;-75
2021/04/23 04:49:39;;;;;;;11.90;3.63;;;;;;;1.29;61.98;96377.59;4996728;28;20179;-76
2021/04/23 04:52:05;;;;;;;11.50;4.10;;;;;;;1.33;61.79;96376.56;5014095;28;20179;-75
2021/04/23 04:54:30;;;;;;;7.73;3.77;;;;;;;1.44;61.44;96380.34;4996386;28;20190;-75
2021/04/23 04:56:55;;;;;;;8.73;3.23;;;;;;;1.54;61.57;96377.28;4996596;28;20186;-74
2021/04/23 04:59:21;;;;;;;14.87;4.53;;;;;;;1.95;60.63;96385.56;4983898;28;20196;-75
2021/04/23 05:01:46;;;;;;;9.67;4.40;;;;;;;3.84;56.67;96382.44;4971176;28;20239;-75
2021/04/23 05:04:11;;;;;;;12.00;4.10;;;;;;;5.03;52.15;96382.34;4959264;28;20212;-76
2021/04/23 05:06:37;;;;;;;7.03;4.10;;;;;;;6.31;48.59;96392.28;4959515;28;20295;-76
2021/04/23 05:09:02;;;;;;;11.57;4.27;;;;;;;7.12;45.16;96386.78;4993744;28;20192;-76
2021/04/23 05:11:28;;;;;;;9.27;4.03;;;;;;;6.75;46.21;96383.31;4993720;28;20186;-76
2021/04/23 05:13:53;;;;;;;9.63;3.90;;;;;;;5.88;47.32;96389.03;4993679;28;20621;-76
2021/04/23 05:16:18;;;;;;;8.37;4.50;;;;;;;5.52;49.49;96390.44;4974095;28;20239;-75
2021/04/23 05:18:44;;;;;;;8.73;4.33;;;;;;;5.00;50.31;96387.69;4992988;28;20195;-75
2021/04/23 05:21:09;;;;;;;15.97;4.40;;;;;;;4.70;51.74;96393.75;4997199;28;20258;-76
2021/04/23 05:23:35;;;;;;;11.83;4.37;;;;;;;4.54;51.96;96400.72;5008593;28;20188;-76
2021/04/23 05:26:00;;;;;;;9.60;4.37;;;;;;;4.37;52.66;96398.28;5006875;28;20233;-73
2021/04/23 05:28:25;;;;;;;12.60;4.13;;;;;;;4.36;53.29;96400.03;4991868;28;20188;-76
2021/04/23 05:30:51;;;;;;;15.37;4.77;;;;;;;4.31;53.17;96399.47;4993544;28;20238;-76
2021/04/23 05:33:16;;;;;;;7.00;3.30;;;;;;;4.40;52.52;96403.25;5008265;28;20188;-74
2021/04/23 05:35:42;;;;;;;14.10;6.10;;;;;;;4.36;52.34;96412.06;4975239;28;20274;-75
2021/04/23 05:38:08;;;;;;;14.23;7.53;;;;;;;4.42;51.78;96414.31;4992039;28;20655;-76
2021/04/23 05:40:40;;;;;;;15.30;7.00;;;;;;;4.47;51.00;96412.28;5008329;28;20176;-76
2021/04/23 05:43:07;;;;;;;14.07;8.33;;;;;;;4.57;50.89;96410.00;4976492;28;20249;-77
2021/04/23 05:45:34;;;;;;;12.00;6.47;;;;;;;4.54;50.62;96413.56;4975412;28;20216;-76
2021/04/23 05:47:59;;;;;;;11.47;5.97;;;;;;;4.59;50.42;96424.41;4993263;28;20184;-77
2021/04/23 05:50:26;;;;;;;11.13;6.20;;;;;;;4.62;50.86;96426.81;4974746;28;20539;-76
2021/04/23 05:52:52;;;;;;;8.83;5.57;;;;;;;4.65;50.62;96430.94;4976105;28;20191;-77
2021/04/23 05:55:19;;;;;;;13.57;4.73;;;;;;;4.67;51.05;96429.94;4972303;28;20204;-76
2021/04/23 05:57:45;;;;;;;7.43;3.70;;;;;;;4.70;50.11;96437.50;4975566;28;20595;-76
2021/04/23 06:00:13;;;;;;;11.90;3.77;;;;;;;4.84;49.66;96437.50;4976247;28;20184;-78
2021/04/23 06:02:39;;;;;;;8.60;3.57;;;;;;;4.84;49.52;96432.34;4975764;28;20222;-75
2021/04/23 06:05:05;;;;;;;10.60;3.60;;;;;;;4.79;50.24;96433.56;4975138;28;20247;-77
2021/04/23 06:07:31;;;;;;;10.07;3.93;;;;;;;4.84;49.84;96442.63;4992269;28;20260;-76
2021/04/23 06:09:56;;;;;;;9.23;3.37;;;;;;;4.93;50.02;96443.00;4993716;28;20202;-77
2021/04/23 06:12:21;;;;;;;10.43;3.20;;;;;;;5.04;49.88;96443.22;4957397;28;20246;-77
2021/04/23 06:14:47;;;;;;;9.33;3.60;;;;;;;4.95;49.70;96448.91;4959393;28;20204;-78
2021/04/23 06:17:12;;;;;;;12.20;3.63;;;;;;;4.89;49.73;96455.25;4975653;28;20559;-77
2021/04/23 06:19:37;;;;;;;8.63;3.40;;;;;;;5.08;49.65;96448.06;4976497;28;20663;-77
2021/04/23 06:22:05;;;;;;;9.17;3.60;;;;;;;5.16;49.62;96457.91;4958398;28;20197;-78
2021/04/23 06:24:31;;;;;;;11.07;3.07;;;;;;;5.30;49.68;96455.34;4971269;28;20286;-77
2021/04/23 06:26:56;;;;;;;13.63;3.63;;;;;;;5.32;49.17;96455.25;4988996;28;20188;-77
2021/04/23 06:29:21;;;;;;;9.67;3.77;;;;;;;5.44;48.92;96451.09;4972551;28;20204;-76
2021/04/23 06:31:46;;;;;;;11.50;3.40;;;;;;;5.46;48.70;96459.53;4992374;28;20184;-76
2021/04/23 06:34:12;;;;;;;9.93;3.60;;;;;;;5.53;48.69;96458.25;4974840;28;20179;-77
2021/04/23 06:36:38;;;;;;;6.10;3.00;;;;;;;5.92;47.46;96460.16;4992215;28;20251;-77
2021/04/23 06:39:05;;;;;;;8.13;3.23;;;;;;;6.63;45.98;96464.16;4959166;28;20200;-78
2021/04/23 06:41:30;;;;;;;8.70;3.10;;;;;;;8.55;41.18;96468.00;4992479;28;20188;-76
2021/04/23 06:43:56;;;;;;;7.07;3.10;;;;;;;9.85;38.60;96471.91;4992157;28;20334;-77
2021/04/23 06:46:21;;;;;;;10.57;2.90;;;;;;;11.28;36.02;96474.94;4974061;28;20261;-77
2021/04/23 06:48:48;;;;;;;7.77;3.03;;;;;;;11.98;33.43;96468.94;4974853;28;20266;-77
2021/04/23 06:51:13;;;;;;;9.90;3.33;;;;;;;13.03;31.29;96480.34;4974959;28;20644;-77
2021/04/23 06:53:38;;;;;;;11.40;3.20;;;;;;;12.36;32.35;96480.38;4974992;28;20192;-77
2021/04/23 06:56:04;;;;;;;9.40;3.33;;;;;;;11.83;33.77;96475.47;4991864;28;20203;-76
2021/04/23 06:58:29;;;;;;;10.03;3.23;;;;;;;12.67;31.69;96479.28;4992313;28;20207;-77
2021/04/23 07:00:55;;;;;;;11.10;3.33;;;;;;;11.06;34.41;96484.56;4955297;28;20190;-77
2021/04/23 07:03:20;;;;;;;12.90;3.57;;;;;;;10.64;35.72;96480.28;4990198;28;20696;-79
2021/04/23 07:05:46;;;;;;;12.10;3.63;;;;;;;9.90;37.27;96483.56;4957647;28;20224;-78
2021/04/23 07:08:11;;;;;;;9.13;4.00;;;;;;;8.86;39.28;96479.53;4972951;28;20243;-77
2021/04/23 07:10:37;;;;;;;8.77;3.53;;;;;;;8.79;40.89;96489.50;4959983;28;20175;-76
2021/04/23 07:13:03;;;;;;;8.20;3.37;;;;;;;7.98;41.94;96486.78;4991944;28;20598;-76
2021/04/23 07:15:30;;;;;;;10.70;4.00;;;;;;;8.00;41.64;96484.91;4974600;28;20208;-77
2021/04/23 07:17:56;;;;;;;9.27;3.47;;;;;;;7.50;43.79;96484.91;4974558;28;20198;-77
2021/04/23 07:20:22;;;;;;;8.33;3.37;;;;;;;7.71;43.92;96484.38;4974369;28;20522;-77
2021/04/23 07:22:48;;;;;;;10.00;3.43;;;;;;;7.64;43.91;96484.78;4991773;28;20183;-76
2021/04/23 07:25:14;;;;;;;12.50;4.07;;;;;;;7.61;42.89;96489.34;4974349;28;20216;-76
2021/04/23 07:27:40;;;;;;;12.70;3.77;;;;;;;7.95;43.45;96492.97;4974490;28;20656;-76
2021/04/23 07:30:09;;;;;;;8.13;3.50;;;;;;;8.14;43.13;96488.16;4978295;28;20194;-76
2021/04/23 07:32:35;;;;;;;14.57;3.53;;;;;;;8.21;43.32;96489.34;4994909;28;20176;-76
2021/04/23 07:35:00;;;;;;;8.50;3.63;;;;;;;8.36;42.58;96487.47;4978059;28;20208;-77
2021/04/23 07:37:26;;;;;;;12.77;4.23;;;;;;;8.29;43.48;96495.75;4978492;28;20587;-78
2021/04/23 07:39:51;;;;;;;9.73;3.90;;;;;;;8.07;42.86;96492.13;4975113;28;20648;-77
2021/04/23 07:42:17;;;;;;;10.37;3.67;;;;;;;8.35;42.79;96493.56;4972334;28;20234;-78
2021/04/23 07:44:42;;;;;;;10.53;3.87;;;;;;;8.51;42.48;96488.94;4977371;28;20216;-78
2021/04/23 07:47:08;;;;;;;15.40;4.63;;;;;;;8.58;42.00;96489.34;4978090;28;20179;-76
2021/04/23 07:49:34;;;;;;;12.10;4.77;;;;;;;8.69;41.82;96491.13;4995441;28;20718;-78
2021/04/23 07:51:59;;;;;;;8.53;4.47;;;;;;;8.65;41.76;96492.28;4978588;28;20267;-77
2021/04/23 07:54:25;;;;;;;12.10;4.27;;;;;;;8.84;40.90;96490.00;4977817;28;20200;-78
2021/04/23 07:56:50;;;;;;;11.83;4.87;;;;;;;8.60;41.22;96497.81;4956444;28;20714;-77
2021/04/23 07:59:15;;;;;;;13.97;5.07;;;;;;;8.43;42.47;96498.19;4988150;28;20176;-78
2021/04/23 08:01:41;;;;;;;12.10;4.50;;;;;;;8.39;41.99;96496.75;4970280;28;20184;-77
2021/04/23 08:04:06;;;;;;;9.57;4.33;;;;;;;8.38;41.77;96493.34;4958598;28;20189;-78
2021/04/23 08:06:32;;;;;;;11.33;4.67;;;;;;;8.46;41.95;96497.97;4986398;28;20208;-78
2021/04/23 08:08:57;;;;;;;11.83;5.47;;;;;;;8.52;41.37;96487.19;4995931;28;20562;-78
2021/04/23 08:11:23;;;;;;;12.40;5.60;;;;;;;8.70;41.69;96495.38;4960358;28;20215;-77
2021/04/23 08:13:48;;;;;;;11.07;5.43;;;;;;;8.77;41.23;96497.38;4978514;28;20188;-78
2021/04/23 08:16:14;;;;;;;15.97;5.13;;;;;;;8.92;40.57;96489.41;4978045;28;20195;-79
2021/04/23 08:18:39;;;;;;;13.17;5.40;;;;;;;8.92;41.14;96494.59;4961783;28;21698;-77
2021/04/23 08:21:08;;;;;;;11.37;5.13;;;;;;;9.00;40.67;96502.63;4995620;28;20184;-78
2021/04/23 08:23:34;;;;;;;14.70;5.13;;;;;;;8.69;41.27;96494.53;4977777;28;20175;-78
2021/04/23 08:26:02;;;;;;;12.33;4.73;;;;;;;9.11;41.63;96502.66;4986978;28;20208;-78
2021/04/23 08:28:28;;;;;;;17.93;6.23;;;;;;;9.15;39.99;96501.47;4976950;28;20281;-78
2021/04/23 08:30:53;;;;;;;14.73;5.70;;;;;;;9.13;40.95;96497.34;4976721;28;20203;-78
2021/04/23 08:33:18;;;;;;;12.07;4.87;;;;;;;9.25;40.96;96497.25;4995247;28;20184;-76
2021/04/23 08:35:44;;;;;;;15.00;5.27;;;;;;;9.58;41.06;96490.44;4977668;28;20199;-77
2021/04/23 08:38:09;;;;;;;23.37;5.30;;;;;;;9.91;40.17;96494.78;4977586;28;20234;-77
2021/04/23 08:40:35;;;;;;;11.40;5.90;;;;;;;9.64;41.58;96495.16;4977038;28;20653;-76
2021/04/23 08:43:00;;;;;;;11.93;5.30;;;;;;;9.94;40.29;96495.34;4977862;28;20184;-78
2021/04/23 08:45:25;;;;;;;13.10;4.70;;;;;;;10.20;41.03;96495.06;4960786;28;20200;-77
2021/04/23 08:47:51;;;;;;;11.90;4.83;;;;;;;9.98;41.12;96497.69;4960334;28;20191;-77
2021/04/23 08:50:22;;;;;;;11.00;4.70;;;;;;;10.33;40.54;96498.34;4976895;28;20194;-76
2021/04/23 08:52:49;;;;;;;13.37;5.00;;;;;;;9.97;38.06;96498.63;4994155;28;20258;-77
2021/04/23 08:55:17;;;;;;;14.07;5.27;;;;;;;9.53;39.47;96503.72;4974760;28;20198;-77
2021/04/23 08:57:42;;;;;;;12.43;6.00;;;;;;;9.60;39.08;96494.53;4971301;28;20204;-77
2021/04/23 09:00:10;;;;;;;11.70;5.37;;;;;;;9.88;40.30;96495.81;4976348;28;20267;-77
2021/04/23 09:02:36;;;;;;;15.20;5.00;;;;;;;9.94;39.71;96508.31;4975905;28;20694;-77
2021/04/23 09:05:03;;;;;;;8.40;5.10;;;;;;;10.22;40.07;96503.56;4976477;28;20204;-78
2021/04/23 09:07:28;;;;;;;9.07;4.43;;;;;;;10.47;39.23;96502.44;4976572;28;20172;-78
2021/04/23 09:10:05;;;;;;;17.23;5.00;;;;;;;10.15;38.65;96502.38;4960182;28;20184;-74
2021/04/23 09:12:30;;;;;;;12.80;5.50;;;;;;;9.86;38.77;96489.94;4976505;28;20232;-77
2021/04/23 09:14:56;;;;;;;10.67;5.57;;;;;;;9.78;39.17;96494.06;4993826;28;20195;-76
2021/04/23 09:17:23;;;;;;;14.03;5.63;;;;;;;9.94;38.26;96500.53;4976095;28;20238;-77
2021/04/23 09:19:49;;;;;;;16.40;5.87;;;;;;;9.67;39.82;96494.91;4976171;28;20187;-76
2021/04/23 09:22:17;;;;;;;13.17;5.60;;;;;;;9.71;39.20;96493.72;4993486;28;20184;-76
2021/04/23 09:24:45;;;;;;;14.10;7.10;;;;;;;9.79;38.34;96498.31;4992767;28;20203;-76
2021/04/23 09:27:15;;;;;;;16.47;5.93;;;;;;;9.87;38.36;96495.94;4991823;28;20172;-74
2021/04/23 09:29:46;;;;;;;20.47;5.80;;;;;;;9.93;37.54;96498.88;4991900;28;20184;-77
2021/04/23 09:32:17;;;;;;;17.13;5.67;;;;;;;9.94;38.42;96490.16;4976171;28;20194;-77
2021/04/23 09:35:03;;;;;;;12.17;5.00;;;;;;;10.03;37.99;96492.97;4973761;28;20238;-75
2021/04/23 09:37:31;;;;;;;10.20;5.93;;;;;;;10.06;38.82;96497.91;4984403;28;20241;-76
2021/04/23 09:40:12;;;;;;;8.27;4.77;;;;;;;10.29;37.49;96499.53;4973128;28;20191;-75
2021/04/23 09:42:53;;;;;;;13.33;5.53;;;;;;;10.62;37.75;96500.38;5006083;28;20176;-75
2021/04/23 09:45:21;;;;;;;12.93;5.67;;;;;;;10.74;36.66;96497.59;4974718;28;20249;-76
2021/04/23 09:47:47;;;;;;;17.77;6.33;;;;;;;10.56;37.41;96499.09;4993025;28;20542;-74
2021/04/23 09:50:14;;;;;;;13.50;4.97;;;;;;;10.96;37.79;96499.28;4958359;28;20652;-77
2021/04/23 09:52:47;;;;;;;10.83;5.00;;;;;;;11.26;36.38;96500.25;4991129;28;20176;-77
2021/04/23 09:55:13;;;;;;;8.57;4.70;;;;;;;11.32;37.84;96500.59;4990817;28;20194;-76
2021/04/23 09:57:51;;;;;;;15.77;5.90;;;;;;;10.47;37.59;96490.28;4974945;28;20188;-75
2021/04/23 10:00:17;;;;;;;15.70;6.10;;;;;;;10.24;36.99;96498.25;5000227;28;20226;-76
2021/04/23 10:02:42;;;;;;;12.10;5.17;;;;;;;10.25;38.12;96495.56;4958155;28;20191;-75
2021/04/23 10:05:08;;;;;;;10.90;5.83;;;;;;;10.62;37.93;96500.38;4958302;28;20212;-76
2021/04/23 10:07:35;;;;;;;10.10;5.97;;;;;;;10.67;37.98;96506.84;4958814;28;20180;-76
2021/04/23 10:10:03;;;;;;;13.23;6.20;;;;;;;10.47;38.39;96503.25;4974921;28;20190;-77
2021/04/23 10:12:39;;;;;;;14.57;5.53;;;;;;;10.52;37.06;96502.91;5000998;28;20234;-77
2021/04/23 10:15:22;;;;;;;14.73;5.57;;;;;;;10.71;37.05;96502.22;5002341;28;20199;-77
2021/04/23 10:17:50;;;;;;;14.87;5.83;;;;;;;10.43;37.03;96495.84;4991895;28;20663;-75
2021/04/23 10:20:22;;;;;;;10.77;5.50;;;;;;;10.59;37.71;96498.00;4991644;28;20681;-75
2021/04/23 10:22:48;;;;;;;14.60;5.60;;;;;;;11.00;39.69;96499.84;5007099;28;20598;-76
2021/04/23 10:25:16;;;;;;;10.20;5.30;;;;;;;10.95;36.54;96507.16;5006575;28;20216;-76
2021/04/23 10:27:43;;;;;;;13.23;5.60;;;;;;;10.72;36.63;96501.28;4974442;28;20274;-76
2021/04/23 10:30:11;;;;;;;19.10;5.67;;;;;;;10.72;36.35;96507.31;4974880;28;20184;-76
2021/04/23 10:32:37;;;;;;;10.47;5.07;;;;;;;10.63;37.53;96502.84;5007088;28;20190;-76
2021/04/23 10:35:03;;;;;;;12.33;5.03;;;;;;;10.72;36.00;96491.72;4974251;28;20631;-76
2021/04/23 10:37:28;;;;;;;19.27;5.70;;;;;;;10.69;35.84;96496.31;5007137;28;20637;-76
2021/04/23 10:39:54;;;;;;;14.70;6.67;;;;;;;10.74;35.04;96495.00;4974629;28;20215;-75
2021/04/23 10:42:39;;;;;;;10.30;5.67;;;;;;;10.74;36.10;96499.38;4990779;28;20180;-76
2021/04/23 10:45:17;;;;;;;12.70;5.17;;;;;;;10.91;36.46;96509.22;4995516;28;20231;-76
2021/04/23 10:47:42;;;;;;;12.67;5.60;;;;;;;10.74;35.77;96505.41;5002448;28;20180;-75
2021/04/23 10:50:13;;;;;;;10.13;5.40;;;;;;;10.65;35.51;96505.31;5002786;28;20184;-75
2021/04/23 10:52:57;;;;;;;10.37;5.37;;;;;;;11.07;37.62;96500.97;4984998;28;20192;-75
2021/04/23 10:55:55;;;;;;;11.60;5.10;;;;;;;11.42;36.27;96497.22;4990589;28;20803;-77
2021/04/23 10:58:26;;;;;;;10.50;4.90;;;;;;;11.44;33.58;96490.91;4993112;28;20184;-75
2021/04/23 11:00:54;;;;;;;10.27;4.73;;;;;;;11.44;33.62;96496.13;4990662;28;20184;-76
2021/04/23 11:03:34;;;;;;;10.47;5.27;;;;;;;11.43;33.94;96488.44;4974786;28;20171;-77
2021/04/23 11:06:03;;;;;;;9.87;5.13;;;;;;;11.50;33.28;96498.22;4990575;28;20287;-77
2021/04/23 11:08:30;;;;;;;10.90;4.77;;;;;;;11.54;33.12;96496.97;4975143;28;20180;-76
2021/04/23 11:11:02;;;;;;;11.10;5.17;;;;;;;11.21;33.62;96492.00;4958896;28;20214;-76
2021/04/23 11:13:29;;;;;;;12.90;5.07;;;;;;;11.45;32.85;96492.56;4991910;28;20190;-77
2021/04/23 11:16:23;;;;;;;11.23;4.47;;;;;;;11.88;33.58;96496.72;4973877;28;20191;-76
2021/04/23 11:18:51;;;;;;;11.33;5.20;;;;;;;11.97;31.79;96495.94;4991959;28;20176;-77
2021/04/23 11:21:30;;;;;;;10.87;4.97;;;;;;;12.22;32.06;96488.59;4991616;28;20246;-75
2021/04/23 11:24:14;;;;;;;14.77;4.67;;;;;;;12.51;29.07;96484.22;4985058;28;20279;-75
2021/04/23 11:26:52;;;;;;;11.03;4.80;;;;;;;11.99;29.61;96488.81;4991051;28;20214;-75
2021/04/23 11:29:17;;;;;;;11.90;4.63;;;;;;;11.55;29.03;96488.22;4991220;28;20591;-75
2021/04/23 11:32:07;;;;;;;7.27;4.23;;;;;;;11.83;28.54;96481.50;4970626;28;20259;-75
2021/04/23 11:34:36;;;;;;;6.93;4.77;;;;;;;12.04;30.67;96476.22;4985029;28;20188;-75
2021/04/23 11:37:02;;;;;;;11.77;4.43;;;;;;;12.20;28.23;96478.31;4956390;28;20189;-75